Time;durP1;ratioP1;P1;durP2;ratioP2;P2;SDS_P1;SDS_P2;PMS_P1;PMS_P2;Temp;Humidity;BMP_temperature;BMP_pressure;BME280_temperature;BME280_humidity;BME280_pressure;Samples;Min_cycle;Max_cycle;Signal;HPM_P1;HPM_P2
2024/01/12 00:00:14;;;;;;;91.72;63.92;;;0.60;99.90;;;;;;6129101;23;20056;-79
2024/01/12 00:02:40;;;;;;;85.45;62.80;;;0.60;99.90;;;;;;6153943;23;20315;-79
2024/01/12 00:05:07;;;;;;;103.95;65.32;;;0.60;99.90;;;;;;6129435;23;20049;-79
2024/01/12 00:07:32;;;;;;;89.40;62.33;;;0.70;99.90;;;;;;6129146;23;20045;-79
2024/01/12 00:09:58;;;;;;;46.80;23.20;;;0.70;99.90;;;;;;6154094;23;20013;-80
2024/01/12 00:12:24;;;;;;;79.00;58.72;;;0.60;99.90;;;;;;6153893;23;20450;-79
2024/01/12 00:14:50;;;;;;;96.97;65.03;;;0.60;99.90;;;;;;6126716;23;20021;-79
2024/01/12 00:17:18;;;;;;;81.68;59.03;;;0.60;99.90;;;;;;6150551;23;20010;-79
2024/01/12 00:19:45;;;;;;;104.35;66.25;;;0.70;99.90;;;;;;6128745;23;20021;-79
2024/01/12 00:22:10;;;;;;;93.57;63.70;;;0.70;99.90;;;;;;6129158;23;20020;-79
2024/01/12 00:24:36;;;;;;;101.60;67.00;;;0.70;99.90;;;;;;6129064;23;20450;-79
2024/01/12 00:27:01;;;;;;;51.75;23.80;;;0.70;99.90;;;;;;6129042;23;20040;-79
2024/01/12 00:29:27;;;;;;;101.40;65.75;;;0.60;99.90;;;;;;6153156;23;20014;-79
2024/01/12 00:31:53;;;;;;;80.10;58.70;;;0.70;99.90;;;;;;6153594;23;20025;-79
2024/01/12 00:34:18;;;;;;;86.75;61.60;;;0.70;99.90;;;;;;6153490;23;20020;-79
2024/01/12 00:36:46;;;;;;;94.10;62.72;;;0.70;99.90;;;;;;6128529;23;20013;-79
2024/01/12 00:39:12;;;;;;;83.70;61.08;;;0.80;99.90;;;;;;6153011;23;20349;-79
2024/01/12 00:41:37;;;;;;;76.70;57.33;;;0.70;99.90;;;;;;6128732;23;20045;-79
2024/01/12 00:44:04;;;;;;;80.05;58.88;;;0.70;99.90;;;;;;6128950;23;20014;-78
2024/01/12 00:46:31;;;;;;;89.20;61.53;;;0.70;99.90;;;;;;6153197;23;20330;-79
2024/01/12 00:48:57;;;;;;;78.00;56.80;;;0.70;99.90;;;;;;6153123;23;20013;-79
2024/01/12 00:51:22;;;;;;;37.78;18.27;;;0.70;99.90;;;;;;6128482;23;20014;-79
2024/01/12 00:53:48;;;;;;;79.78;58.90;;;0.70;99.90;;;;;;6128609;23;20014;-79
2024/01/12 00:56:14;;;;;;;72.07;55.47;;;0.70;99.90;;;;;;6128874;23;20096;-79
2024/01/12 00:58:39;;;;;;;70.80;54.08;;;0.70;99.90;;;;;;6128922;23;20014;-79
2024/01/12 01:01:05;;;;;;;39.60;21.33;;;0.70;99.90;;;;;;6129085;23;20028;-79
2024/01/12 01:03:30;;;;;;;94.72;61.85;;;0.70;99.90;;;;;;6128632;23;20446;-79
2024/01/12 01:05:56;;;;;;;87.05;60.40;;;0.70;99.90;;;;;;6152922;23;20021;-79
2024/01/12 01:08:21;;;;;;;87.20;59.20;;;0.70;99.90;;;;;;6153367;23;20013;-79
2024/01/12 01:10:47;;;;;;;82.80;57.53;;;0.70;99.90;;;;;;6153264;23;20015;-79
2024/01/12 01:13:14;;;;;;;82.68;57.80;;;0.70;99.90;;;;;;6153168;23;20044;-79
2024/01/12 01:15:39;;;;;;;86.72;58.63;;;0.70;99.90;;;;;;6128236;23;20024;-79
2024/01/12 01:18:05;;;;;;;108.70;65.78;;;0.80;99.90;;;;;;6128779;23;20010;-79
2024/01/12 01:20:33;;;;;;;96.35;62.33;;;0.80;99.90;;;;;;6128863;23;20502;-79
2024/01/12 01:22:58;;;;;;;68.75;52.30;;;0.80;99.90;;;;;;6128351;23;20079;-79
2024/01/12 01:25:24;;;;;;;102.30;62.75;;;0.70;99.90;;;;;;6128504;23;20553;-79
2024/01/12 01:27:50;;;;;;;83.63;57.55;;;0.80;99.90;;;;;;6128432;23;20053;-79
2024/01/12 01:30:16;;;;;;;81.68;57.05;;;0.70;99.90;;;;;;6152939;23;20100;-79
2024/01/12 01:32:41;;;;;;;84.72;58.20;;;0.70;99.90;;;;;;6128210;23;20064;-79
2024/01/12 01:35:07;;;;;;;73.45;54.80;;;0.70;99.90;;;;;;6153045;23;20382;-79
2024/01/12 01:37:33;;;;;;;71.93;53.22;;;0.80;99.90;;;;;;6152680;23;20390;-79
2024/01/12 01:39:58;;;;;;;74.30;54.88;;;0.80;99.90;;;;;;6128555;23;20473;-79
2024/01/12 01:42:24;;;;;;;72.07;53.80;;;0.80;99.90;;;;;;6127728;23;20446;-79
2024/01/12 01:44:50;;;;;;;77.97;53.50;;;0.80;99.90;;;;;;6128218;23;20009;-79
2024/01/12 01:47:16;;;;;;;76.63;54.50;;;0.80;99.90;;;;;;6152689;23;20087;-79
2024/01/12 01:49:41;;;;;;;37.17;18.83;;;0.80;99.90;;;;;;6128305;23;20450;-79
2024/01/12 01:52:09;;;;;;;82.20;56.10;;;0.70;99.90;;;;;;6128320;23;20013;-79
2024/01/12 01:54:35;;;;;;;75.05;50.17;;;0.70;99.90;;;;;;6127683;23;20024;-79
2024/01/12 01:57:01;;;;;;;82.63;55.30;;;0.80;99.90;;;;;;6153142;23;20017;-79
2024/01/12 01:59:26;;;;;;;71.75;51.15;;;0.80;99.90;;;;;;6128318;23;20040;-79
2024/01/12 02:01:52;;;;;;;67.53;47.92;;;0.80;99.90;;;;;;6128241;23;20358;-79
2024/01/12 02:04:19;;;;;;;57.60;42.75;;;0.80;99.90;;;;;;6152805;23;20013;-79
2024/01/12 02:06:45;;;;;;;66.38;45.28;;;0.80;99.90;;;;;;6152538;23;20013;-79
2024/01/12 02:09:11;;;;;;;63.55;46.30;;;0.90;99.90;;;;;;6127716;23;20096;-79
2024/01/12 02:11:37;;;;;;;33.47;17.42;;;0.90;99.90;;;;;;6128175;23;20033;-79
2024/01/12 02:14:06;;;;;;;55.03;41.22;;;0.90;99.90;;;;;;6127753;23;20462;-79
2024/01/12 02:16:36;;;;;;;57.97;41.17;;;0.90;99.90;;;;;;6152696;23;20006;-79
2024/01/12 02:19:02;;;;;;;56.15;42.00;;;0.90;99.90;;;;;;6128306;23;20426;-79
2024/01/12 02:21:28;;;;;;;46.17;35.10;;;1.00;99.90;;;;;;6153138;23;20446;-79
2024/01/12 02:23:54;;;;;;;46.75;36.05;;;1.00;99.90;;;;;;6127188;23;20442;-79
2024/01/12 02:26:19;;;;;;;47.38;34.03;;;1.00;99.90;;;;;;6127824;23;20070;-79
2024/01/12 02:28:46;;;;;;;35.90;26.80;;;1.10;99.90;;;;;;6128137;23;20342;-79
2024/01/12 02:31:12;;;;;;;39.30;29.85;;;1.10;99.90;;;;;;6152614;23;20315;-79
2024/01/12 02:33:37;;;;;;;37.42;29.70;;;1.20;99.90;;;;;;6151639;23;20135;-79
2024/01/12 02:36:03;;;;;;;45.38;31.88;;;1.20;99.90;;;;;;6128114;23;20009;-79
2024/01/12 02:38:29;;;;;;;35.95;28.48;;;1.20;99.90;;;;;;6128022;23;20005;-79
2024/01/12 02:40:55;;;;;;;40.33;28.38;;;1.20;99.90;;;;;;6152625;23;20060;-79
2024/01/12 02:43:20;;;;;;;35.33;22.58;;;1.20;99.90;;;;;;6152005;23;20490;-79
2024/01/12 02:45:46;;;;;;;32.45;20.23;;;1.20;99.90;;;;;;6127899;23;20036;-79
2024/01/12 02:48:12;;;;;;;33.92;19.75;;;1.30;99.90;;;;;;6127397;23;20319;-79
2024/01/12 02:50:37;;;;;;;34.08;21.15;;;1.30;99.90;;;;;;6127124;23;20048;-79
2024/01/12 02:53:03;;;;;;;30.10;18.63;;;1.30;99.90;;;;;;6151945;23;20335;-79
2024/01/12 02:55:28;;;;;;;26.80;17.63;;;1.40;99.90;;;;;;6152429;23;20111;-79
2024/01/12 02:57:54;;;;;;;27.45;16.90;;;1.40;99.90;;;;;;6152401;23;20009;-79
2024/01/12 03:00:20;;;;;;;28.02;18.15;;;1.40;99.90;;;;;;6152675;23;20009;-79
2024/01/12 03:02:45;;;;;;;25.48;17.95;;;1.40;99.90;;;;;;6127452;23;20044;-79
2024/01/12 03:05:11;;;;;;;30.58;19.33;;;1.40;99.90;;;;;;6152054;23;20533;-79
2024/01/12 03:07:37;;;;;;;28.17;17.25;;;1.40;99.90;;;;;;6127853;23;20556;-79
2024/01/12 03:10:04;;;;;;;28.73;18.58;;;1.40;99.90;;;;;;6152750;23;20078;-79
2024/01/12 03:12:29;;;;;;;27.80;18.63;;;1.40;99.90;;;;;;6127501;23;20032;-79
2024/01/12 03:14:55;;;;;;;27.17;16.33;;;1.40;99.90;;;;;;6127629;23;20450;-79
2024/01/12 03:17:20;;;;;;;23.52;14.80;;;1.40;99.90;;;;;;6127475;23;20450;-79
2024/01/12 03:19:46;;;;;;;27.88;16.10;;;1.40;99.90;;;;;;6152373;23;20352;-79
2024/01/12 03:22:11;;;;;;;25.75;17.48;;;1.30;99.90;;;;;;6152228;23;20023;-79
2024/01/12 03:24:37;;;;;;;23.20;14.88;;;1.30;99.90;;;;;;6151957;23;20017;-79
2024/01/12 03:27:04;;;;;;;26.35;14.73;;;1.40;99.90;;;;;;6152338;23;20016;-79
2024/01/12 03:29:29;;;;;;;20.52;14.50;;;1.30;99.90;;;;;;6127230;23;20025;-79
2024/01/12 03:31:55;;;;;;;29.52;16.73;;;1.30;99.90;;;;;;6152162;23;20454;-79
2024/01/12 03:34:20;;;;;;;25.02;15.38;;;1.30;99.90;;;;;;6127365;23;20017;-79
2024/01/12 03:36:46;;;;;;;25.73;15.32;;;1.30;99.90;;;;;;6152129;23;20036;-79
2024/01/12 03:39:11;;;;;;;25.35;15.25;;;1.30;99.90;;;;;;6127630;23;20032;-79
2024/01/12 03:41:37;;;;;;;26.88;15.85;;;1.20;99.90;;;;;;6127125;23;20014;-79
2024/01/12 03:44:03;;;;;;;29.42;16.00;;;1.30;99.90;;;;;;6151515;23;20014;-79
2024/01/12 03:46:28;;;;;;;27.13;17.00;;;1.30;99.90;;;;;;6127291;23;20014;-79
2024/01/12 03:48:55;;;;;;;25.40;17.10;;;1.30;99.90;;;;;;6152148;23;20045;-79
2024/01/12 03:51:20;;;;;;;26.63;16.60;;;1.30;99.90;;;;;;6127720;23;20014;-79
2024/01/12 03:53:46;;;;;;;24.38;16.40;;;1.30;99.90;;;;;;6127129;23;20354;-79
2024/01/12 03:56:12;;;;;;;30.38;19.27;;;1.30;99.90;;;;;;6128917;23;20458;-79
2024/01/12 03:58:38;;;;;;;25.05;17.67;;;1.20;99.90;;;;;;6129043;23;20005;-79
2024/01/12 04:01:06;;;;;;;27.45;17.85;;;1.20;99.90;;;;;;6129129;23;20017;-79
2024/01/12 04:03:32;;;;;;;26.80;17.80;;;1.20;99.90;;;;;;6128718;23;20323;-79
2024/01/12 04:05:59;;;;;;;27.55;18.08;;;1.20;99.90;;;;;;6153966;23;20024;-79
2024/01/12 04:08:24;;;;;;;24.90;18.17;;;1.20;99.90;;;;;;6154051;23;20020;-79
2024/01/12 04:10:50;;;;;;;24.55;17.70;;;1.20;99.90;;;;;;6153820;23;20092;-79
2024/01/12 04:13:16;;;;;;;23.17;16.42;;;1.20;99.90;;;;;;6128594;23;20524;-79
2024/01/12 04:15:41;;;;;;;29.00;19.75;;;1.20;99.90;;;;;;6129356;23;20016;-79
2024/01/12 04:18:07;;;;;;;26.10;18.02;;;1.10;99.90;;;;;;6129345;23;20071;-79
2024/01/12 04:20:32;;;;;;;31.25;20.08;;;1.10;99.90;;;;;;6153993;23;20109;-79
2024/01/12 04:22:58;;;;;;;33.00;20.10;;;1.10;99.90;;;;;;6128829;23;20072;-79
2024/01/12 04:25:23;;;;;;;25.52;17.90;;;1.10;99.90;;;;;;6129290;23;20018;-79
2024/01/12 04:27:49;;;;;;;24.02;17.10;;;1.10;99.90;;;;;;6128365;23;20092;-79
2024/01/12 04:30:15;;;;;;;22.40;17.30;;;1.10;99.90;;;;;;6129200;23;20014;-79
2024/01/12 04:32:40;;;;;;;24.35;16.52;;;1.10;99.90;;;;;;6129138;23;20006;-79
2024/01/12 04:35:07;;;;;;;21.55;16.85;;;1.10;99.90;;;;;;6153357;23;20056;-79
2024/01/12 04:37:32;;;;;;;23.15;16.67;;;1.10;99.90;;;;;;6153734;23;20567;-79
2024/01/12 04:39:58;;;;;;;26.85;17.13;;;1.10;99.90;;;;;;6129182;23;20092;-79
2024/01/12 04:42:23;;;;;;;21.90;16.98;;;1.10;99.90;;;;;;6128569;23;20350;-79
2024/01/12 04:44:49;;;;;;;21.27;16.10;;;1.10;99.90;;;;;;6152950;23;20021;-79
2024/01/12 04:47:14;;;;;;;21.58;16.50;;;1.10;99.90;;;;;;6129515;23;20036;-79
2024/01/12 04:49:40;;;;;;;22.83;16.52;;;1.10;99.90;;;;;;6129025;23;20045;-80
2024/01/12 04:52:05;;;;;;;21.88;16.60;;;1.10;99.90;;;;;;6128810;23;20017;-80
2024/01/12 04:54:31;;;;;;;27.42;17.40;;;1.10;99.90;;;;;;6153470;23;20044;-80
2024/01/12 04:56:57;;;;;;;24.75;17.27;;;1.10;99.90;;;;;;6129014;23;20088;-80
2024/01/12 04:59:23;;;;;;;33.03;18.30;;;1.10;99.90;;;;;;6128737;23;20104;-80
2024/01/12 05:01:49;;;;;;;23.92;17.15;;;1.20;99.90;;;;;;6129090;23;20099;-83
2024/01/12 05:04:15;;;;;;;27.90;16.40;;;1.20;99.90;;;;;;6152998;23;20024;-82
2024/01/12 05:06:40;;;;;;;26.25;17.45;;;1.20;99.90;;;;;;6128435;23;20103;-82
2024/01/12 05:09:09;;;;;;;23.73;16.35;;;1.20;99.90;;;;;;6129331;23;20049;-83
2024/01/12 05:11:34;;;;;;;26.42;17.33;;;1.20;99.90;;;;;;6128479;23;20016;-82
2024/01/12 05:14:00;;;;;;;29.90;17.02;;;1.20;99.90;;;;;;6153252;23;20049;-83
2024/01/12 05:16:26;;;;;;;21.67;15.88;;;1.30;99.90;;;;;;6153551;23;20382;-82
2024/01/12 05:18:51;;;;;;;27.58;16.40;;;1.30;99.90;;;;;;6153260;23;20071;-82
2024/01/12 05:21:17;;;;;;;28.40;18.05;;;1.30;99.90;;;;;;6153621;23;20017;-82
2024/01/12 05:23:46;;;;;;;22.88;17.98;;;1.30;99.90;;;;;;6153156;23;20021;-82
2024/01/12 05:26:15;;;;;;;24.75;16.30;;;1.30;99.90;;;;;;6153588;23;20014;-82
2024/01/12 05:28:40;;;;;;;23.73;16.25;;;1.30;99.90;;;;;;6152821;23;20028;-82
2024/01/12 05:31:09;;;;;;;23.83;16.00;;;1.30;99.90;;;;;;6153194;23;20084;-82
2024/01/12 05:33:34;;;;;;;59.90;21.75;;;1.30;99.90;;;;;;6128555;23;20010;-82
2024/01/12 05:36:00;;;;;;;27.50;18.20;;;1.40;99.90;;;;;;6153326;23;20422;-82
2024/01/12 05:38:26;;;;;;;26.08;16.63;;;1.40;99.90;;;;;;6128185;23;20454;-82
2024/01/12 05:40:51;;;;;;;28.30;19.55;;;1.40;99.90;;;;;;6128722;23;20020;-81
2024/01/12 05:43:17;;;;;;;25.35;17.77;;;1.40;99.90;;;;;;6127909;23;20014;-82
2024/01/12 05:45:43;;;;;;;23.13;17.17;;;1.40;99.90;;;;;;6153229;23;20021;-81
2024/01/12 05:48:09;;;;;;;26.45;18.27;;;1.50;99.90;;;;;;6128369;23;20013;-82
2024/01/12 05:50:35;;;;;;;27.90;19.65;;;1.50;99.90;;;;;;6153130;23;20024;-82
2024/01/12 05:53:00;;;;;;;25.98;18.50;;;1.50;99.90;;;;;;6152330;23;20084;-82
2024/01/12 05:55:26;;;;;;;26.38;18.42;;;1.50;99.90;;;;;;6128619;23;20016;-82
2024/01/12 05:57:52;;;;;;;27.33;18.65;;;1.40;99.90;;;;;;6128483;23;20213;-82
2024/01/12 06:00:17;;;;;;;29.00;18.75;;;1.50;99.90;;;;;;6128525;23;20017;-84
2024/01/12 06:02:43;;;;;;;27.58;18.63;;;1.40;99.90;;;;;;6128465;23;20021;-82
2024/01/12 06:05:09;;;;;;;25.77;18.27;;;1.40;99.90;;;;;;6151785;23;20016;-81
2024/01/12 06:07:34;;;;;;;25.13;18.15;;;1.40;99.90;;;;;;6127487;23;20025;-82
2024/01/12 06:10:04;;;;;;;26.08;18.30;;;1.30;99.90;;;;;;6152774;23;20014;-82
2024/01/12 06:12:29;;;;;;;29.13;18.60;;;1.30;99.90;;;;;;6152772;23;20044;-82
2024/01/12 06:14:55;;;;;;;25.38;17.60;;;1.20;99.90;;;;;;6127615;23;20458;-82
2024/01/12 06:17:20;;;;;;;24.17;17.05;;;1.20;99.90;;;;;;6128235;23;20472;-82
2024/01/12 06:19:46;;;;;;;24.95;17.08;;;1.20;99.90;;;;;;6152152;23;20087;-82
2024/01/12 06:22:13;;;;;;;26.42;17.10;;;1.10;99.90;;;;;;6128105;23;20013;-82
2024/01/12 06:24:38;;;;;;;21.67;17.15;;;1.10;99.90;;;;;;6153027;23;20485;-82
2024/01/12 06:27:04;;;;;;;18.95;16.73;;;1.00;99.90;;;;;;6152740;23;20013;-82
2024/01/12 06:29:30;;;;;;;26.67;18.17;;;1.00;99.90;;;;;;6152614;23;20010;-82
2024/01/12 06:31:55;;;;;;;24.63;17.70;;;1.00;99.90;;;;;;6152826;23;20327;-81
2024/01/12 06:34:21;;;;;;;27.00;16.65;;;0.90;99.90;;;;;;6127856;23;20029;-84
2024/01/12 06:36:46;;;;;;;26.50;16.92;;;0.90;99.90;;;;;;6152515;23;20006;-81
2024/01/12 06:39:12;;;;;;;28.10;18.45;;;0.90;99.90;;;;;;6151578;23;20044;-82
2024/01/12 06:41:46;;;;;;;27.05;18.67;;;0.90;99.90;;;;;;6152688;23;20009;-82
2024/01/12 06:44:12;;;;;;;22.60;18.00;;;0.90;99.90;;;;;;6151831;23;20009;-81
2024/01/12 06:46:42;;;;;;;29.10;19.30;;;0.90;99.90;;;;;;6152525;23;20005;-82
2024/01/12 06:49:08;;;;;;;28.50;19.73;;;0.90;99.90;;;;;;6152824;23;20013;-82
2024/01/12 06:51:34;;;;;;;27.98;20.90;;;0.90;99.90;;;;;;6128014;23;20007;-81
2024/01/12 06:54:00;;;;;;;26.25;20.17;;;0.90;99.90;;;;;;6152635;23;20049;-80
2024/01/12 06:56:25;;;;;;;28.08;20.85;;;0.90;99.90;;;;;;6128227;23;20345;-80
2024/01/12 06:58:51;;;;;;;29.08;21.23;;;0.90;99.90;;;;;;6127349;23;20064;-82
2024/01/12 07:01:18;;;;;;;26.50;21.63;;;0.90;99.90;;;;;;6128188;23;20013;-83
2024/01/12 07:03:44;;;;;;;24.95;20.33;;;0.90;99.90;;;;;;6152308;23;20068;-81
2024/01/12 07:06:09;;;;;;;28.45;22.05;;;1.00;99.90;;;;;;6151340;23;20014;-80
2024/01/12 07:08:35;;;;;;;26.17;20.90;;;1.00;99.90;;;;;;6152406;23;20025;-81
2024/01/12 07:11:03;;;;;;;29.02;21.05;;;1.00;99.90;;;;;;6153090;23;20013;-80
2024/01/12 07:13:28;;;;;;;28.45;20.50;;;1.00;99.90;;;;;;6152420;23;20338;-81
2024/01/12 07:15:54;;;;;;;24.23;21.50;;;1.00;99.90;;;;;;6128274;23;20041;-80
2024/01/12 07:18:20;;;;;;;32.08;21.98;;;1.00;99.90;;;;;;6152967;23;20041;-80
2024/01/12 07:20:45;;;;;;;33.20;22.10;;;1.00;99.90;;;;;;6126923;23;20014;-80
2024/01/12 07:23:11;;;;;;;31.08;22.67;;;1.10;99.90;;;;;;6151449;23;20017;-82
2024/01/12 07:25:38;;;;;;;16.13;7.70;;;1.10;99.90;;;;;;6152725;23;20049;-81
2024/01/12 07:28:05;;;;;;;30.00;22.77;;;1.10;99.90;;;;;;6128050;23;20018;-84
2024/01/12 07:30:30;;;;;;;31.20;23.42;;;1.10;99.90;;;;;;6127430;23;20053;-84
2024/01/12 07:32:56;;;;;;;31.23;23.17;;;1.10;99.90;;;;;;6153542;23;20076;-84
2024/01/12 07:35:21;;;;;;;27.77;21.90;;;1.10;99.90;;;;;;6154013;23;20010;-83
2024/01/12 07:37:47;;;;;;;27.63;21.85;;;1.10;99.90;;;;;;6130076;23;20037;-83
2024/01/12 07:40:13;;;;;;;32.28;23.13;;;1.20;99.90;;;;;;6129935;23;20024;-83
2024/01/12 07:42:38;;;;;;;35.92;24.60;;;1.20;99.90;;;;;;6130008;23;20014;-84
2024/01/12 07:45:04;;;;;;;38.90;24.70;;;1.20;99.90;;;;;;6129816;23;20013;-84
2024/01/12 07:47:30;;;;;;;35.15;25.67;;;1.20;99.90;;;;;;6154225;23;20013;-84
2024/01/12 07:49:56;;;;;;;36.67;24.73;;;1.20;99.90;;;;;;6129905;23;20025;-83
2024/01/12 07:52:21;;;;;;;34.92;27.10;;;1.20;99.90;;;;;;6154565;23;20006;-84
2024/01/12 07:54:47;;;;;;;34.70;25.25;;;1.30;99.90;;;;;;6129541;23;20064;-83
2024/01/12 07:57:12;;;;;;;38.72;25.88;;;1.30;99.90;;;;;;6154296;23;20021;-84
2024/01/12 07:59:38;;;;;;;31.23;24.83;;;1.30;99.90;;;;;;6154289;23;20010;-83
2024/01/12 08:02:03;;;;;;;34.47;26.48;;;1.30;99.90;;;;;;6129891;23;20024;-83
2024/01/12 08:04:29;;;;;;;39.53;28.58;;;1.30;99.90;;;;;;6154126;23;20462;-84
2024/01/12 08:06:54;;;;;;;35.63;26.20;;;1.30;99.90;;;;;;6129966;23;20013;-82
2024/01/12 08:09:20;;;;;;;35.67;25.90;;;1.30;99.90;;;;;;6154349;23;20013;-81
2024/01/12 08:11:46;;;;;;;35.75;24.40;;;1.40;99.90;;;;;;6153781;23;20092;-81
2024/01/12 08:14:11;;;;;;;36.10;24.98;;;1.40;99.90;;;;;;6153871;23;20014;-81
2024/01/12 08:16:37;;;;;;;32.03;23.25;;;1.40;99.90;;;;;;6154259;23;20005;-82
2024/01/12 08:19:02;;;;;;;28.55;23.85;;;1.40;99.90;;;;;;6129927;23;20013;-81
2024/01/12 08:21:28;;;;;;;35.53;25.70;;;1.50;99.90;;;;;;6154299;23;20024;-81
2024/01/12 08:23:54;;;;;;;38.83;28.00;;;1.50;99.90;;;;;;6153795;23;20013;-81
2024/01/12 08:26:19;;;;;;;33.75;26.48;;;1.50;99.90;;;;;;6129567;23;20401;-81
2024/01/12 08:28:45;;;;;;;34.13;27.10;;;1.50;99.90;;;;;;6129783;23;20052;-81
2024/01/12 08:31:11;;;;;;;38.92;28.30;;;1.50;99.90;;;;;;6153998;23;20045;-81
2024/01/12 08:33:37;;;;;;;39.40;27.38;;;1.60;99.90;;;;;;6129325;23;20006;-81
2024/01/12 08:36:04;;;;;;;36.00;26.85;;;1.60;99.90;;;;;;6154214;23;20392;-81
2024/01/12 08:38:29;;;;;;;38.00;26.95;;;1.60;99.90;;;;;;6129733;23;20020;-82
2024/01/12 08:40:55;;;;;;;34.05;25.55;;;1.70;99.90;;;;;;6153928;23;20096;-81
2024/01/12 08:43:21;;;;;;;32.22;24.15;;;1.70;99.90;;;;;;6153323;23;20017;-81
2024/01/12 08:45:46;;;;;;;34.08;24.10;;;1.70;99.90;;;;;;6129603;23;20108;-80
2024/01/12 08:48:12;;;;;;;33.90;22.27;;;1.70;99.90;;;;;;6153663;23;20021;-81
2024/01/12 08:50:38;;;;;;;33.33;22.45;;;1.80;99.90;;;;;;6129270;23;20010;-80
2024/01/12 08:53:04;;;;;;;34.05;22.38;;;1.80;99.90;;;;;;6153670;23;20009;-80
2024/01/12 08:55:29;;;;;;;31.92;22.20;;;1.80;99.90;;;;;;6153802;23;20346;-80
2024/01/12 08:57:55;;;;;;;32.42;22.45;;;1.80;99.90;;;;;;6129244;23;20029;-80
2024/01/12 09:00:20;;;;;;;29.63;21.58;;;1.80;99.90;;;;;;6153854;23;20386;-81
2024/01/12 09:02:46;;;;;;;26.98;20.83;;;1.90;99.90;;;;;;6128899;23;20016;-82
2024/01/12 09:05:12;;;;;;;26.55;20.17;;;1.90;99.90;;;;;;6129097;23;20014;-80
2024/01/12 09:07:38;;;;;;;27.98;21.38;;;2.00;99.90;;;;;;6129073;23;20021;-80
2024/01/12 09:10:03;;;;;;;37.60;23.85;;;2.00;99.90;;;;;;6153873;23;20076;-81
2024/01/12 09:12:29;;;;;;;33.40;25.00;;;2.10;99.90;;;;;;6153536;23;20446;-80
2024/01/12 09:14:55;;;;;;;34.90;25.67;;;2.10;99.90;;;;;;6153074;23;20014;-81
2024/01/12 09:17:20;;;;;;;35.55;27.02;;;2.10;99.90;;;;;;6153579;23;20061;-81
2024/01/12 09:19:46;;;;;;;35.53;26.13;;;2.10;99.90;;;;;;6153817;23;20366;-81
2024/01/12 09:22:12;;;;;;;32.47;23.10;;;2.20;99.90;;;;;;6153683;23;20017;-81
2024/01/12 09:24:37;;;;;;;27.38;21.75;;;2.20;99.90;;;;;;6128707;23;20064;-81
2024/01/12 09:27:03;;;;;;;33.42;20.55;;;2.20;99.90;;;;;;6153294;23;20387;-81
2024/01/12 09:29:29;;;;;;;32.95;19.90;;;2.20;99.90;;;;;;6153634;23;20021;-82
2024/01/12 09:31:54;;;;;;;26.05;18.33;;;2.30;99.90;;;;;;6128936;23;20018;-80
2024/01/12 09:34:20;;;;;;;28.20;19.33;;;2.30;99.90;;;;;;6153219;23;20052;-81
2024/01/12 09:36:45;;;;;;;29.10;19.77;;;2.30;99.90;;;;;;6128491;23;20009;-81
2024/01/12 09:39:14;;;;;;;30.17;19.65;;;2.40;99.90;;;;;;6128955;23;20010;-81
2024/01/12 09:41:54;;;;;;;35.05;22.13;;;2.40;99.90;;;;;;6128766;23;20048;-81
2024/01/12 09:44:20;;;;;;;25.70;17.10;;;2.50;99.90;;;;;;6153476;23;20066;-82
2024/01/12 09:46:59;;;;;;;33.88;21.98;;;2.50;99.90;;;;;;6153078;23;20013;-81
2024/01/12 09:49:29;;;;;;;36.40;29.00;;;2.50;99.90;;;;;;6152978;23;20009;-80
2024/01/12 09:52:01;;;;;;;33.08;25.48;;;2.50;99.90;;;;;;6153287;23;20027;-80
2024/01/12 09:54:27;;;;;;;24.73;17.88;;;2.60;99.90;;;;;;6152881;23;20465;-80
2024/01/12 09:56:55;;;;;;;28.25;19.55;;;2.60;99.90;;;;;;6153129;23;20017;-82
2024/01/12 09:59:22;;;;;;;24.15;16.77;;;2.60;99.90;;;;;;6153354;23;20454;-80
2024/01/12 10:01:48;;;;;;;24.45;15.95;;;2.70;99.90;;;;;;6153186;23;20037;-82
2024/01/12 10:04:14;;;;;;;25.77;14.45;;;2.70;99.90;;;;;;6153067;23;20009;-81
2024/01/12 10:06:39;;;;;;;24.88;13.88;;;2.80;99.90;;;;;;6152827;23;20033;-80
2024/01/12 10:09:06;;;;;;;24.17;12.85;;;2.80;99.90;;;;;;6128621;23;20064;-81
2024/01/12 10:11:32;;;;;;;24.77;12.75;;;2.90;99.90;;;;;;6153013;23;20036;-80
2024/01/12 10:13:58;;;;;;;24.50;11.43;;;2.90;99.90;;;;;;6152798;23;20017;-80
2024/01/12 10:16:28;;;;;;;23.25;10.40;;;3.00;99.90;;;;;;6153068;23;20054;-81
2024/01/12 10:18:58;;;;;;;22.20;10.80;;;3.10;99.90;;;;;;6128618;23;20006;-81
2024/01/12 10:21:25;;;;;;;24.02;10.30;;;3.10;99.90;;;;;;6153110;23;20045;-80
2024/01/12 10:23:59;;;;;;;17.52;8.90;;;3.20;99.90;;;;;;6152829;23;20028;-81
2024/01/12 10:26:25;;;;;;;19.92;9.57;;;3.30;99.90;;;;;;6152940;23;20085;-81
2024/01/12 10:28:50;;;;;;;25.00;9.30;;;3.40;99.90;;;;;;6128473;23;20092;-80
2024/01/12 10:31:16;;;;;;;24.77;10.20;;;3.40;99.90;;;;;;6152878;23;20014;-80
2024/01/12 10:33:42;;;;;;;23.02;8.90;;;3.50;99.90;;;;;;6152709;23;20014;-80
2024/01/12 10:36:21;;;;;;;19.92;7.93;;;3.50;99.90;;;;;;6152937;23;20010;-80
2024/01/12 10:38:49;;;;;;;19.13;7.97;;;3.60;99.90;;;;;;6152905;23;20069;-81
2024/01/12 10:41:19;;;;;;;24.45;8.77;;;3.60;99.90;;;;;;6152973;23;20024;-81
2024/01/12 10:43:50;;;;;;;21.20;7.07;;;3.60;99.90;;;;;;6152541;23;20456;-80
2024/01/12 10:46:29;;;;;;;20.70;8.10;;;3.70;99.90;;;;;;6152828;23;20044;-80
2024/01/12 10:49:14;;;;;;;21.48;8.50;;;3.70;99.90;;;;;;6155967;23;20017;-79
2024/01/12 10:51:51;;;;;;;19.38;7.88;;;3.80;99.90;;;;;;6134475;23;20013;-80
2024/01/12 10:54:23;;;;;;;21.48;7.80;;;3.90;99.90;;;;;;6133689;23;20231;-79
2024/01/12 10:56:51;;;;;;;21.63;6.60;;;4.00;99.90;;;;;;6132828;23;20013;-79
2024/01/12 10:59:18;;;;;;;19.67;6.80;;;4.10;99.90;;;;;;6105312;23;20037;-79
2024/01/12 11:01:45;;;;;;;22.38;7.25;;;4.10;99.90;;;;;;6104992;23;20076;-80
2024/01/12 11:04:13;;;;;;;20.05;6.47;;;4.20;99.90;;;;;;6104733;23;20012;-80
2024/01/12 11:06:42;;;;;;;22.17;6.50;;;4.30;99.90;;;;;;6104636;23;20399;-80
2024/01/12 11:09:13;;;;;;;18.15;6.45;;;4.30;99.90;;;;;;6105164;23;20017;-80
2024/01/12 11:12:05;;;;;;;22.50;7.57;;;4.30;99.90;;;;;;6105146;23;20052;-79
2024/01/12 11:14:31;;;;;;;19.55;6.88;;;4.40;99.90;;;;;;6103526;23;20017;-79
2024/01/12 11:16:57;;;;;;;19.67;5.72;;;4.40;99.90;;;;;;6105021;23;20017;-80
2024/01/12 11:19:29;;;;;;;19.60;6.10;;;4.50;99.90;;;;;;6104748;23;20072;-79
2024/01/12 11:22:08;;;;;;;20.90;6.22;;;4.50;99.90;;;;;;6104453;23;20017;-80
2024/01/12 11:24:38;;;;;;;20.52;6.40;;;4.60;99.90;;;;;;6104827;23;20513;-80
2024/01/12 11:27:05;;;;;;;22.67;7.03;;;4.60;99.90;;;;;;6104302;23;20018;-80
2024/01/12 11:29:34;;;;;;;25.50;6.53;;;4.60;99.90;;;;;;6104884;23;20017;-80
2024/01/12 11:32:04;;;;;;;21.70;6.30;;;4.70;99.90;;;;;;6105255;23;20024;-80
2024/01/12 11:34:38;;;;;;;18.80;5.47;;;4.70;99.90;;;;;;6105021;23;20454;-79
2024/01/12 11:37:08;;;;;;;19.77;5.53;;;4.80;99.90;;;;;;6105513;23;20010;-80
2024/01/12 11:39:47;;;;;;;24.30;5.63;;;4.80;99.90;;;;;;6106397;23;20072;-79
2024/01/12 11:42:13;;;;;;;20.98;6.45;;;4.90;99.90;;;;;;6104853;23;20017;-80
2024/01/12 11:44:39;;;;;;;22.90;5.90;;;4.90;99.90;;;;;;6104635;23;20071;-80
2024/01/12 11:47:08;;;;;;;19.70;5.53;;;5.00;99.90;;;;;;6105387;23;20472;-79
2024/01/12 11:49:39;;;;;;;18.98;5.80;;;5.00;99.90;;;;;;6105434;23;20049;-80
2024/01/12 11:52:08;;;;;;;20.93;5.73;;;5.00;99.90;;;;;;6105037;23;20014;-80
2024/01/12 11:54:34;;;;;;;21.00;5.55;;;4.90;99.90;;;;;;6104828;23;20248;-80
2024/01/12 11:57:03;;;;;;;22.65;5.88;;;4.90;99.90;;;;;;6105206;23;20014;-80
2024/01/12 11:59:34;;;;;;;25.83;5.90;;;4.80;99.90;;;;;;6105196;23;20072;-80
2024/01/12 12:02:04;;;;;;;19.88;5.70;;;4.80;99.90;;;;;;6106546;23;20024;-80
2024/01/12 12:04:32;;;;;;;26.52;6.53;;;4.70;99.90;;;;;;6104547;23;20021;-80
2024/01/12 12:06:58;;;;;;;25.02;5.85;;;4.70;99.90;;;;;;6106054;23;20457;-80
2024/01/12 12:09:25;;;;;;;24.65;6.75;;;4.70;99.90;;;;;;6077571;23;20010;-80
2024/01/12 12:11:56;;;;;;;26.38;6.85;;;4.70;99.90;;;;;;6077036;23;20066;-80
2024/01/12 12:14:30;;;;;;;25.48;6.85;;;4.80;99.90;;;;;;6075487;23;20070;-80
2024/01/12 12:16:56;;;;;;;24.27;6.07;;;4.80;99.90;;;;;;6079060;23;20022;-80
2024/01/12 12:19:28;;;;;;;22.75;6.32;;;4.80;99.90;;;;;;6078874;23;20016;-79
2024/01/12 12:21:53;;;;;;;22.52;5.95;;;4.90;99.90;;;;;;6077901;23;20267;-80
2024/01/12 12:24:19;;;;;;;22.58;6.43;;;4.90;99.90;;;;;;6079165;23;20023;-80
2024/01/12 12:26:48;;;;;;;20.23;5.43;;;5.00;99.90;;;;;;6080148;23;20010;-80
2024/01/12 12:29:17;;;;;;;25.27;6.13;;;5.00;99.90;;;;;;6081675;23;20518;-81
2024/01/12 12:31:48;;;;;;;21.65;6.80;;;5.00;99.90;;;;;;6086360;23;20049;-80
2024/01/12 12:34:16;;;;;;;17.70;5.93;;;4.90;99.90;;;;;;6084343;23;20013;-80